Time;durP1;ratioP1;P1;durP2;ratioP2;P2;SDS_P1;SDS_P2;PMS_P1;PMS_P2;Temp;Humidity;BMP_temperature;BMP_pressure;BME280_temperature;BME280_humidity;BME280_pressure;Samples;Min_cycle;Max_cycle;Signal;HPM_P1;HPM_P2
2021/07/16 00:02:06;;;;;;;65.52;32.33;;;;;;;24.94;45.14;100645.66;1767955;79;21008;-82
2021/07/16 00:04:32;;;;;;;55.08;25.17;;;;;;;24.88;45.84;100645.25;1814479;77;21069;-83
2021/07/16 00:07:00;;;;;;;61.13;27.85;;;;;;;24.79;46.34;100647.50;1783277;78;21632;-82
2021/07/16 00:09:28;;;;;;;52.43;24.75;;;;;;;24.71;46.66;100647.36;1809306;77;21527;-82
2021/07/16 00:11:56;;;;;;;55.38;23.30;;;;;;;24.62;47.10;100650.48;1760794;79;21102;-82
2021/07/16 00:14:23;;;;;;;66.62;32.15;;;;;;;24.53;47.58;100645.38;1744608;80;21007;-82
2021/07/16 00:16:51;;;;;;;93.42;48.42;;;;;;;24.49;47.98;100650.80;1807689;78;21015;-82
2021/07/16 00:19:18;;;;;;;127.55;76.00;;;;;;;24.46;48.90;100647.00;1791199;79;21808;-82
2021/07/16 00:21:44;;;;;;;146.35;87.25;;;;;;;24.42;49.65;100643.67;1815744;77;21082;-82
2021/07/16 00:24:11;;;;;;;118.57;69.90;;;;;;;24.37;49.70;100636.91;1779924;79;21107;-82
2021/07/16 00:26:38;;;;;;;111.12;63.52;;;;;;;24.29;49.78;100634.41;1812174;77;21591;-82
2021/07/16 00:29:06;;;;;;;64.85;39.80;;;;;;;24.26;49.90;100636.56;1786213;78;21137;-82
2021/07/16 00:31:35;;;;;;;43.58;20.30;;;;;;;24.23;50.27;100638.22;1811621;77;21540;-82
2021/07/16 00:34:02;;;;;;;45.45;14.40;;;;;;;24.21;50.18;100632.91;1810312;77;21024;-82
2021/07/16 00:36:28;;;;;;;30.90;10.15;;;;;;;24.18;50.18;100634.05;1801673;77;21593;-82
2021/07/16 00:38:55;;;;;;;38.33;10.43;;;;;;;24.16;50.08;100637.45;1804005;77;21548;-86
2021/07/16 00:41:21;;;;;;;39.95;9.98;;;;;;;24.14;49.97;100633.11;1798325;77;21347;-85
2021/07/16 00:43:49;;;;;;;41.70;10.13;;;;;;;24.12;49.42;100635.13;1800301;77;21502;-85
2021/07/16 00:46:16;;;;;;;38.55;10.48;;;;;;;24.13;49.49;100636.86;1803306;78;21062;-85
2021/07/16 00:48:43;;;;;;;30.30;8.90;;;;;;;24.11;49.60;100642.50;1782694;78;21020;-85
2021/07/16 00:51:10;;;;;;;38.95;9.08;;;;;;;24.08;49.43;100641.91;1805796;78;21119;-86
2021/07/16 00:53:38;;;;;;;33.88;8.03;;;;;;;24.06;49.49;100641.20;1787105;79;21061;-86
2021/07/16 00:56:06;;;;;;;29.15;8.18;;;;;;;24.03;49.62;100639.11;1805656;77;21130;-85
2021/07/16 00:58:32;;;;;;;22.75;7.80;;;;;;;23.99;50.10;100638.14;1788327;78;21022;-82
2021/07/16 01:00:59;;;;;;;31.77;8.85;;;;;;;23.94;50.44;100649.52;1810068;77;21335;-82
2021/07/16 01:03:25;;;;;;;34.33;8.13;;;;;;;23.89;51.08;100652.70;1805744;77;21003;-83
2021/07/16 01:05:52;;;;;;;35.68;9.83;;;;;;;23.84;51.81;100645.40;1815000;77;21026;-83
2021/07/16 01:08:18;;;;;;;31.35;9.53;;;;;;;23.79;52.31;100644.97;1807817;77;21061;-83
2021/07/16 01:10:47;;;;;;;33.02;12.33;;;;;;;23.71;52.95;100641.58;1814730;77;20960;-83
2021/07/16 01:13:13;;;;;;;48.52;17.45;;;;;;;23.66;54.03;100641.14;1806759;77;20947;-82
2021/07/16 01:15:40;;;;;;;48.58;18.57;;;;;;;23.59;55.40;100642.73;1805167;78;21798;-83
2021/07/16 01:18:07;;;;;;;43.33;19.23;;;;;;;23.53;57.04;100646.01;1813255;77;21022;-82
2021/07/16 01:20:35;;;;;;;33.25;16.77;;;;;;;23.46;57.63;100641.11;1785955;77;21582;-83
2021/07/16 01:23:14;;;;;;;41.85;15.43;;;;;;;23.41;59.45;100648.88;1806792;77;21033;-83
2021/07/16 01:25:41;;;;;;;36.42;13.58;;;;;;;23.36;61.26;100640.23;1782345;77;21485;-83
2021/07/16 01:28:07;;;;;;;35.83;14.03;;;;;;;23.31;62.21;100643.87;1800291;77;22404;-83
2021/07/16 01:30:34;;;;;;;39.27;13.72;;;;;;;23.27;63.35;100643.80;1806681;77;21041;-83
2021/07/16 01:33:01;;;;;;;39.13;13.90;;;;;;;23.22;63.84;100643.33;1807644;77;21559;-83
2021/07/16 01:35:28;;;;;;;39.20;15.68;;;;;;;23.16;63.89;100650.20;1807961;77;21052;-83
2021/07/16 01:37:58;;;;;;;35.23;14.70;;;;;;;23.10;63.94;100650.77;1807362;77;21016;-82
2021/07/16 01:40:26;;;;;;;32.30;13.08;;;;;;;23.01;63.94;100646.98;1805792;77;21025;-82
2021/07/16 01:42:57;;;;;;;31.55;12.18;;;;;;;22.95;64.31;100642.08;1816393;77;21594;-83
2021/07/16 01:45:30;;;;;;;38.45;12.63;;;;;;;22.88;64.25;100639.02;1802887;77;21958;-83
2021/07/16 01:48:00;;;;;;;35.28;12.00;;;;;;;22.84;64.36;100638.94;1804180;77;21036;-87
2021/07/16 01:50:35;;;;;;;27.45;11.55;;;;;;;22.84;64.83;100638.42;1804614;77;20974;-87
2021/07/16 01:53:03;;;;;;;27.37;13.35;;;;;;;22.85;65.18;100644.77;1829708;77;21693;-88
2021/07/16 01:55:31;;;;;;;32.55;14.33;;;;;;;22.83;66.34;100644.89;1813833;77;21524;-86
2021/07/16 01:57:59;;;;;;;39.83;14.87;;;;;;;22.80;66.84;100644.31;1788137;79;21070;-88
2021/07/16 02:00:33;;;;;;;34.33;13.70;;;;;;;22.73;67.09;100643.99;1808082;77;21060;-87
2021/07/16 02:03:03;;;;;;;31.73;13.65;;;;;;;22.66;67.15;100645.52;1809497;78;20902;-87
2021/07/16 02:05:29;;;;;;;33.90;13.65;;;;;;;22.58;67.04;100638.87;1811608;78;20999;-87
2021/07/16 02:08:06;;;;;;;43.00;17.17;;;;;;;22.58;67.05;100640.75;1816351;77;21098;-87
2021/07/16 02:10:36;;;;;;;51.05;17.17;;;;;;;22.55;66.90;100637.77;1806338;78;21052;-87
2021/07/16 02:13:03;;;;;;;55.52;22.20;;;;;;;22.56;67.28;100644.13;1824761;77;21814;-86
2021/07/16 02:15:34;;;;;;;48.17;24.95;;;;;;;22.54;67.52;100655.17;1799890;78;20892;-87
2021/07/16 02:18:01;;;;;;;50.63;26.82;;;;;;;22.52;68.00;100644.00;1807568;77;21615;-87
2021/07/16 02:20:36;;;;;;;50.40;24.35;;;;;;;22.47;67.99;100647.16;1818944;77;20974;-83
2021/07/16 02:23:08;;;;;;;64.07;27.90;;;;;;;22.44;67.62;100654.22;1809864;77;21077;-83
2021/07/16 02:25:34;;;;;;;79.03;37.90;;;;;;;22.43;67.56;100653.83;1814798;77;21025;-82
2021/07/16 02:28:04;;;;;;;58.17;30.08;;;;;;;22.45;68.12;100658.69;1806735;77;21075;-83
2021/07/16 02:30:31;;;;;;;50.55;24.90;;;;;;;22.48;68.93;100657.08;1811869;77;21286;-83
2021/07/16 02:33:00;;;;;;;47.75;24.12;;;;;;;22.50;69.80;100655.08;1820604;77;20937;-83
2021/07/16 02:35:27;;;;;;;48.10;18.57;;;;;;;22.52;70.30;100650.34;1812479;77;21105;-83
2021/07/16 02:37:53;;;;;;;44.85;16.60;;;;;;;22.55;70.08;100645.97;1818470;77;21559;-83
2021/07/16 02:40:21;;;;;;;37.25;12.93;;;;;;;22.59;69.79;100655.62;1810258;77;21066;-83
2021/07/16 02:42:47;;;;;;;30.65;12.40;;;;;;;22.64;69.53;100653.86;1787706;78;21036;-83
2021/07/16 02:45:17;;;;;;;28.85;11.35;;;;;;;22.73;69.42;100647.57;1774828;79;21075;-83
2021/07/16 02:47:44;;;;;;;29.20;9.83;;;;;;;22.81;69.53;100643.31;1819166;77;21776;-82
2021/07/16 02:50:16;;;;;;;26.17;10.23;;;;;;;22.87;69.76;100637.30;1788711;79;20984;-82
2021/07/16 02:52:44;;;;;;;27.35;9.53;;;;;;;22.93;69.95;100640.84;1823622;77;21049;-82
2021/07/16 02:55:11;;;;;;;22.48;8.98;;;;;;;23.01;69.42;100642.89;1813757;77;21035;-84
2021/07/16 02:57:37;;;;;;;21.12;8.10;;;;;;;23.14;68.32;100642.64;1814743;77;21443;-83
2021/07/16 03:00:07;;;;;;;23.85;9.35;;;;;;;23.27;67.16;100639.69;1816233;77;21111;-83
2021/07/16 03:02:43;;;;;;;35.60;9.60;;;;;;;23.40;66.80;100644.91;1819307;77;20845;-83
2021/07/16 03:05:15;;;;;;;44.83;9.50;;;;;;;23.51;66.58;100638.45;1811074;77;20939;-83
2021/07/16 03:07:42;;;;;;;46.63;10.38;;;;;;;23.56;66.04;100647.13;1789910;78;20940;-84
2021/07/16 03:10:19;;;;;;;38.67;8.65;;;;;;;23.57;66.13;100641.48;1786186;79;21500;-84
2021/07/16 03:12:46;;;;;;;34.48;9.15;;;;;;;23.59;65.92;100639.47;1748799;80;21781;-84
2021/07/16 03:15:18;;;;;;;25.60;7.97;;;;;;;23.59;65.46;100638.11;1810113;77;21675;-83
2021/07/16 03:17:45;;;;;;;40.98;9.28;;;;;;;23.60;65.23;100643.09;1823719;77;21240;-83
2021/07/16 03:20:16;;;;;;;32.28;8.33;;;;;;;23.61;65.07;100643.45;1818354;77;21018;-83
2021/07/16 03:22:44;;;;;;;34.78;8.10;;;;;;;23.60;64.37;100642.57;1814623;77;20924;-83
2021/07/16 03:25:14;;;;;;;33.15;8.45;;;;;;;23.64;64.31;100645.90;1814881;77;20940;-82
2021/07/16 03:27:41;;;;;;;39.48;8.80;;;;;;;23.67;63.60;100646.98;1816708;77;21042;-83
2021/07/16 03:30:12;;;;;;;38.00;7.45;;;;;;;23.71;63.27;100647.05;1803136;77;20924;-82
2021/07/16 03:32:39;;;;;;;25.88;7.92;;;;;;;23.74;62.39;100649.50;1803329;77;21558;-83
2021/07/16 03:35:07;;;;;;;28.17;7.20;;;;;;;23.79;62.67;100652.34;1802710;77;20951;-83
2021/07/16 03:37:34;;;;;;;37.17;8.63;;;;;;;23.84;62.78;100652.24;1793132;78;21100;-84
2021/07/16 03:40:02;;;;;;;33.67;7.47;;;;;;;23.89;62.94;100644.49;1802761;77;21500;-83
2021/07/16 03:42:29;;;;;;;36.13;8.08;;;;;;;23.93;62.33;100646.94;1801363;77;22261;-84
2021/07/16 03:44:57;;;;;;;24.85;6.58;;;;;;;23.97;62.43;100649.22;1803235;77;20988;-84
2021/07/16 03:47:24;;;;;;;29.77;7.03;;;;;;;24.00;61.59;100648.95;1799282;77;21016;-84
2021/07/16 03:49:52;;;;;;;26.77;7.10;;;;;;;24.06;61.35;100654.89;1803543;77;21933;-84
2021/07/16 03:52:21;;;;;;;44.98;7.78;;;;;;;24.09;61.27;100646.38;1805552;77;20965;-87
2021/07/16 03:54:50;;;;;;;30.97;7.20;;;;;;;24.12;61.39;100648.83;1768076;81;20969;-87
2021/07/16 03:57:17;;;;;;;34.40;7.58;;;;;;;24.12;61.69;100653.81;1731238;82;21035;-87
2021/07/16 03:59:44;;;;;;;22.55;6.45;;;;;;;24.13;61.73;100642.34;1736454;80;21449;-86
2021/07/16 04:02:11;;;;;;;29.23;6.65;;;;;;;24.14;61.00;100649.05;1729004;81;21123;-87
2021/07/16 04:04:38;;;;;;;18.05;5.60;;;;;;;24.19;59.92;100645.86;1786915;79;21119;-87
2021/07/16 04:07:08;;;;;;;24.63;6.45;;;;;;;24.26;58.58;100644.28;1782089;78;20980;-86
2021/07/16 04:09:34;;;;;;;24.55;6.15;;;;;;;24.31;59.22;100637.85;1770742;79;21503;-87
2021/07/16 04:12:16;;;;;;;24.32;6.58;;;;;;;24.40;58.75;100643.45;1802302;77;21087;-86
2021/07/16 04:14:50;;;;;;;14.60;5.58;;;;;;;24.48;58.70;100641.34;1791845;79;21113;-88
2021/07/16 04:17:21;;;;;;;36.03;6.67;;;;;;;24.57;58.60;100643.22;1802433;77;20969;-86
2021/07/16 04:19:50;;;;;;;25.25;6.65;;;;;;;24.66;58.33;100640.09;1797859;79;20984;-87
2021/07/16 04:22:18;;;;;;;17.20;6.05;;;;;;;24.72;57.92;100651.30;1793717;78;20952;-87
2021/07/16 04:24:46;;;;;;;31.90;6.83;;;;;;;24.78;58.43;100649.89;1815428;77;20987;-86
2021/07/16 04:27:14;;;;;;;25.80;7.30;;;;;;;24.83;58.05;100650.30;1808708;78;20988;-88
2021/07/16 04:29:41;;;;;;;43.42;7.62;;;;;;;24.92;58.14;100651.80;1804553;78;21257;-87
2021/07/16 04:32:08;;;;;;;22.10;6.70;;;;;;;24.99;58.54;100655.16;1777561;78;21171;-88
2021/07/16 04:34:38;;;;;;;36.80;7.33;;;;;;;25.14;58.74;100659.64;1794091;79;21037;-88
2021/07/16 04:37:06;;;;;;;18.85;6.85;;;;;;;25.24;58.72;100647.73;1774817;79;21077;-87
2021/07/16 04:39:34;;;;;;;30.50;6.78;;;;;;;25.38;58.27;100648.61;1812458;78;21532;-87
2021/07/16 04:42:01;;;;;;;27.55;7.05;;;;;;;25.52;57.96;100646.38;1798076;79;21039;-87
2021/07/16 04:44:31;;;;;;;31.33;6.47;;;;;;;25.63;57.34;100650.28;1806631;78;20975;-88
2021/07/16 04:46:58;;;;;;;35.17;6.35;;;;;;;25.76;56.58;100654.02;1800499;77;21040;-84
2021/07/16 04:49:25;;;;;;;23.60;6.58;;;;;;;25.86;57.04;100654.83;1803218;77;21056;-84
2021/07/16 04:51:52;;;;;;;20.30;6.67;;;;;;;26.01;55.96;100649.64;1785547;77;21124;-84
2021/07/16 04:54:19;;;;;;;35.78;7.22;;;;;;;26.13;55.74;100653.50;1803061;77;21479;-83
2021/07/16 04:56:46;;;;;;;27.02;6.67;;;;;;;26.23;55.56;100650.20;1812529;77;21044;-83
2021/07/16 04:59:13;;;;;;;15.32;5.87;;;;;;;26.33;54.90;100653.35;1800336;77;21107;-83
2021/07/16 05:01:41;;;;;;;19.02;6.95;;;;;;;26.44;54.54;100648.98;1797680;77;21104;-83
2021/07/16 05:04:08;;;;;;;24.23;6.58;;;;;;;26.56;53.66;100653.17;1798271;77;21122;-84
2021/07/16 05:06:34;;;;;;;21.10;5.92;;;;;;;26.71;53.46;100656.19;1795765;77;21052;-83
2021/07/16 05:09:01;;;;;;;34.18;6.62;;;;;;;26.85;53.09;100657.50;1803360;77;21145;-84
2021/07/16 05:11:27;;;;;;;22.42;6.10;;;;;;;26.99;52.29;100656.06;1804364;77;21086;-83
2021/07/16 05:13:55;;;;;;;33.15;6.28;;;;;;;27.13;52.18;100659.20;1738322;81;21037;-83
2021/07/16 05:16:22;;;;;;;27.15;5.97;;;;;;;27.29;51.94;100655.64;1755824;79;21160;-85
2021/07/16 05:18:49;;;;;;;40.00;6.85;;;;;;;27.45;51.61;100648.83;1750245;80;21003;-85
2021/07/16 05:21:15;;;;;;;30.30;6.42;;;;;;;27.63;51.38;100652.02;1758060;79;21055;-86
2021/07/16 05:23:43;;;;;;;26.77;6.53;;;;;;;27.82;50.79;100658.25;1746252;79;21179;-85
2021/07/16 05:26:11;;;;;;;19.77;5.80;;;;;;;27.97;50.76;100663.44;1740130;80;21622;-84
2021/07/16 05:28:41;;;;;;;28.02;6.62;;;;;;;28.19;50.46;100662.45;1727470;82;21205;-83
2021/07/16 05:31:08;;;;;;;20.25;5.62;;;;;;;28.39;49.92;100666.20;1762269;79;21079;-84
2021/07/16 05:33:35;;;;;;;17.52;6.15;;;;;;;28.58;49.62;100667.23;1748560;79;21098;-84
2021/07/16 05:36:01;;;;;;;26.02;5.55;;;;;;;28.79;49.30;100669.09;1757080;79;21096;-83
2021/07/16 05:38:28;;;;;;;20.17;5.70;;;;;;;28.98;49.20;100663.72;1750320;79;20955;-84
2021/07/16 05:40:54;;;;;;;22.45;5.92;;;;;;;29.18;48.19;100674.35;1799073;77;21549;-84
2021/07/16 05:43:21;;;;;;;21.17;6.15;;;;;;;29.35;48.20;100666.34;1810399;77;20960;-83
2021/07/16 10:54:10;;;;;;;5.50;2.92;;;;;;;34.81;29.46;100603.09;1747287;79;20957;-57
2021/07/16 10:56:44;;;;;;;4.05;2.90;;;;;;;34.85;28.92;100605.78;1748438;79;21952;-57
2021/07/16 10:59:13;;;;;;;13.85;3.45;;;;;;;34.92;28.87;100604.34;1745704;79;28560;-58
2021/07/16 11:01:43;;;;;;;8.50;2.98;;;;;;;35.03;28.34;100597.27;1733422;80;21077;-56
2021/07/16 11:04:30;;;;;;;6.42;3.47;;;;;;;35.11;29.77;100594.25;1747076;79;21071;-56
2021/07/16 11:16:25;;;;;;;14.40;3.25;;;;;;;35.25;29.63;100578.84;1731108;79;20929;-58
2021/07/16 11:19:14;;;;;;;6.92;2.95;;;;;;;35.30;29.52;100580.45;1687772;80;21831;-58
2021/07/16 11:22:22;;;;;;;5.97;2.77;;;;;;;35.37;29.83;100581.25;1642726;85;21786;-58
2021/07/16 11:28:31;;;;;;;9.68;3.05;;;;;;;35.45;29.03;100591.81;1644320;84;21548;-59
2021/07/16 11:34:27;;;;;;;13.65;3.08;;;;;;;35.37;27.80;100585.44;1511892;91;21204;-62
2021/07/16 11:40:31;;;;;;;10.03;3.40;;;;;;;35.37;28.79;100589.62;1668025;83;21123;-61
2021/07/16 11:43:01;;;;;;;9.00;3.30;;;;;;;35.34;31.99;100582.23;1641891;84;20957;-60
2021/07/16 11:45:37;;;;;;;6.97;3.08;;;;;;;35.22;32.78;100582.08;1658202;84;20967;-62
2021/07/16 11:48:21;;;;;;;13.95;3.85;;;;;;;35.06;33.52;100578.75;1647561;84;21514;-63
2021/07/16 11:50:48;;;;;;;10.43;3.33;;;;;;;34.96;37.57;100588.06;1676835;83;21119;-61
2021/07/16 11:53:23;;;;;;;11.48;3.72;;;;;;;34.78;36.98;100574.86;1662623;83;20926;-61
2021/07/16 11:55:50;;;;;;;8.48;3.27;;;;;;;34.60;37.90;100576.92;1659032;84;21659;-61
2021/07/16 11:58:20;;;;;;;9.45;3.27;;;;;;;34.45;38.35;100580.80;1668717;83;21701;-61
2021/07/16 12:00:53;;;;;;;8.30;3.27;;;;;;;34.32;38.39;100576.63;1653227;83;21498;-60
2021/07/16 12:03:21;;;;;;;10.50;3.60;;;;;;;34.22;40.28;100572.89;1677099;82;21452;-59
2021/07/16 12:05:53;;;;;;;6.03;3.15;;;;;;;34.11;40.88;100570.23;1680984;83;21010;-60
2021/07/16 12:09:03;;;;;;;;;;;;;;;34.02;38.97;100570.14;1652355;84;21407;-61
2021/07/16 12:18:08;;;;;;;6.37;3.30;;;;;;;33.88;41.65;100573.42;1644249;84;21409;-61
2021/07/16 12:34:44;;;;;;;;;;;;;;;;;;;;;
2021/07/16 12:37:22;;;;;;;12.47;3.25;;;;;;;33.51;35.76;100553.81;1438110;96;21542;-57
2021/07/16 12:40:04;;;;;;;7.20;3.20;;;;;;;33.54;35.93;100553.38;1591639;84;21001;-59
2021/07/16 12:43:00;;;;;;;11.18;3.70;;;;;;;33.56;38.10;100558.74;1652749;84;20922;-59
2021/07/16 12:45:52;;;;;;;7.47;2.80;;;;;;;33.54;39.98;100556.71;1637608;84;21095;-59
2021/07/16 12:49:12;;;;;;;;;;;;;;;;;;;;;
2021/07/16 12:51:40;;;;;;;7.60;2.52;;;;;;;33.37;36.33;100541.78;1595768;83;21749;-55
2021/07/16 12:54:24;;;;;;;16.70;2.77;;;;;;;33.36;34.12;100551.19;1653587;84;20927;-54
2021/07/16 12:56:51;;;;;;;11.20;3.00;;;;;;;33.39;33.06;100540.20;1661799;84;20887;-57
2021/07/16 12:59:28;;;;;;;10.08;3.20;;;;;;;33.42;38.11;100547.59;1656475;84;22537;-55
2021/07/16 13:05:32;;;;;;;9.03;2.90;;;;;;;33.29;35.91;100544.77;1653882;82;21179;-60
2021/07/16 13:08:25;;;;;;;8.67;3.53;;;;;;;33.24;36.38;100530.63;1649406;83;21404;-58
2021/07/16 13:11:02;;;;;;;10.53;3.20;;;;;;;33.19;36.75;100530.41;1639395;84;21021;-58
2021/07/16 13:13:40;;;;;;;7.62;3.27;;;;;;;33.15;35.77;100532.74;1643138;84;21597;-60
2021/07/16 13:16:21;;;;;;;7.08;2.40;;;;;;;33.18;35.84;100534.26;1636362;84;21802;-58
2021/07/16 13:18:55;;;;;;;10.60;2.50;;;;;;;33.17;33.85;100525.60;1659890;82;71254;-82
2021/07/16 13:21:24;;;;;;;9.58;2.80;;;;;;;33.19;32.70;100517.91;1643374;83;21576;-80
2021/07/16 13:23:56;;;;;;;11.90;3.67;;;;;;;33.19;34.14;100517.40;1709119;80;21122;-81
2021/07/16 13:26:30;;;;;;;8.23;2.70;;;;;;;33.20;35.47;100519.63;1678145;82;21181;-82
2021/07/16 13:31:51;;;;;;;8.13;2.72;;;;;;;33.20;34.94;100512.68;1744654;79;21127;-66
2021/07/16 13:34:18;;;;;;;8.60;2.35;;;;;;;33.19;33.84;100513.75;1746602;79;21550;-68
2021/07/16 13:36:44;;;;;;;9.33;2.45;;;;;;;33.21;31.38;100510.23;1743988;79;21453;-66
2021/07/16 13:39:11;;;;;;;7.05;2.20;;;;;;;33.23;30.25;100512.26;1751010;79;22461;-66
2021/07/16 13:41:38;;;;;;;7.60;2.55;;;;;;;33.26;29.98;100516.00;1701529;82;21087;-66
2021/07/16 13:44:05;;;;;;;6.72;2.60;;;;;;;33.29;31.41;100516.99;1749522;80;21075;-66
2021/07/16 13:46:35;;;;;;;8.30;2.60;;;;;;;33.31;31.65;100514.86;1749015;79;21135;-67
2021/07/16 13:49:00;;;;;;;4.83;2.10;;;;;;;33.30;30.27;100513.15;1754778;79;21090;-67
2021/07/16 13:51:27;;;;;;;3.50;2.05;;;;;;;33.34;28.71;100521.89;1748846;79;21103;-67
2021/07/16 13:53:54;;;;;;;9.00;2.17;;;;;;;33.37;28.54;100522.34;1758500;79;21711;-67
2021/07/16 13:59:35;;;;;;;8.23;2.15;;;;;;;33.36;28.79;100515.08;1754165;78;21565;-67
2021/07/16 14:02:02;;;;;;;8.60;2.30;;;;;;;33.35;29.71;100513.37;1755344;79;20910;-63
2021/07/16 14:04:29;;;;;;;4.40;2.02;;;;;;;33.34;28.00;100514.44;1721063;80;21441;-66
2021/07/16 14:06:56;;;;;;;8.88;2.10;;;;;;;33.32;28.17;100508.23;1760877;79;21008;-62
2021/07/16 14:09:23;;;;;;;7.78;2.33;;;;;;;33.24;28.66;100506.50;1708977;81;20987;-62
2021/07/16 14:11:49;;;;;;;8.05;2.30;;;;;;;33.18;28.83;100499.55;1696495;81;21531;-63
2021/07/16 14:14:16;;;;;;;6.95;2.05;;;;;;;33.16;28.85;100495.60;1700682;81;21044;-59
2021/07/16 14:20:05;;;;;;;3.95;2.22;;;;;;;33.17;28.95;100495.05;1746555;78;21670;-60
2021/07/16 14:22:41;;;;;;;4.90;1.90;;;;;;;33.14;29.40;100490.25;1747060;78;21345;-62
2021/07/16 14:25:11;;;;;;;3.00;2.00;;;;;;;33.13;28.31;100493.22;1749071;79;21624;-62
2021/07/16 14:27:38;;;;;;;3.05;2.00;;;;;;;33.14;28.16;100487.98;1753356;79;21243;-63
2021/07/16 14:30:11;;;;;;;5.58;2.17;;;;;;;33.18;27.50;100484.27;1765595;79;21776;-63
2021/07/16 14:32:40;;;;;;;3.42;1.85;;;;;;;33.20;29.09;100491.85;1765054;79;20952;-63
2021/07/16 14:35:07;;;;;;;6.58;1.90;;;;;;;33.17;27.54;100481.17;1768729;79;21091;-61
2021/07/16 14:37:33;;;;;;;2.25;1.80;;;;;;;33.18;26.06;100481.48;1712520;81;21470;-62
2021/07/16 14:40:06;;;;;;;7.75;1.80;;;;;;;33.17;25.68;100482.56;1719148;80;21323;-64
2021/07/16 14:42:32;;;;;;;6.97;1.90;;;;;;;33.19;26.06;100480.42;1702061;81;21387;-63
2021/07/16 14:44:59;;;;;;;9.65;2.12;;;;;;;33.17;25.10;100486.72;1695310;82;21302;-63
2021/07/16 14:47:28;;;;;;;3.25;2.02;;;;;;;33.09;25.58;100481.70;1690845;82;20981;-64
2021/07/16 14:49:54;;;;;;;7.65;1.80;;;;;;;33.05;25.29;100479.02;1697556;82;21386;-64
2021/07/16 14:52:21;;;;;;;7.50;2.10;;;;;;;33.03;25.79;100474.73;1767774;79;21521;-64
2021/07/16 14:54:49;;;;;;;2.67;2.00;;;;;;;33.01;25.56;100470.77;1749001;79;20909;-64
2021/07/16 14:57:16;;;;;;;5.90;2.02;;;;;;;33.01;25.34;100472.16;1756887;79;20932;-64
2021/07/16 14:59:42;;;;;;;5.58;2.02;;;;;;;33.02;25.44;100468.86;1760430;79;20968;-64
2021/07/16 15:02:09;;;;;;;4.45;2.10;;;;;;;33.02;26.65;100464.14;1768773;79;21513;-64
2021/07/16 15:04:36;;;;;;;7.72;2.20;;;;;;;32.94;26.79;100463.83;1748990;79;20973;-64
2021/07/16 15:07:03;;;;;;;6.92;2.77;;;;;;;32.89;25.82;100459.41;1766507;79;20962;-64
2021/07/16 15:09:30;;;;;;;11.30;1.98;;;;;;;32.89;26.02;100461.35;1768823;79;20877;-64
2021/07/16 15:11:56;;;;;;;5.65;2.08;;;;;;;32.89;26.40;100464.97;1743541;80;20897;-64
2021/07/16 15:14:24;;;;;;;9.50;2.40;;;;;;;32.90;25.93;100465.84;1746892;79;20990;-65
2021/07/16 15:19:22;;;;;;;5.85;2.25;;;;;;;32.89;25.96;100464.97;1808869;77;23139;-62
2021/07/16 15:21:48;;;;;;;12.65;2.15;;;;;;;32.83;25.92;100458.33;1789422;78;21338;-64
2021/07/16 15:24:15;;;;;;;11.97;2.42;;;;;;;32.84;26.23;100457.77;1790264;78;21540;-63
2021/07/16 15:26:42;;;;;;;5.03;2.30;;;;;;;32.85;26.55;100460.36;1781212;78;21394;-63
2021/07/16 15:29:22;;;;;;;5.92;2.05;;;;;;;32.82;26.07;100450.19;1790441;78;20946;-63
2021/07/16 15:32:23;;;;;;;6.08;2.27;;;;;;;32.74;26.23;100455.39;1788849;79;21016;-63
2021/07/16 15:34:50;;;;;;;6.72;3.08;;;;;;;32.69;26.79;100456.55;1788430;78;20952;-63
2021/07/16 15:37:16;;;;;;;8.30;2.22;;;;;;;32.65;26.89;100453.33;1782379;79;21099;-62
2021/07/16 15:39:43;;;;;;;5.97;2.00;;;;;;;32.62;27.28;100457.07;1784594;78;21430;-64
2021/07/16 15:42:09;;;;;;;7.08;2.15;;;;;;;32.66;27.18;100452.81;1782559;78;21589;-64
2021/07/16 15:44:36;;;;;;;6.65;2.25;;;;;;;32.66;26.60;100446.72;1783174;78;20944;-64
2021/07/16 15:47:03;;;;;;;14.80;3.08;;;;;;;32.62;26.77;100451.52;1785792;78;20881;-64
2021/07/16 15:49:30;;;;;;;8.28;2.45;;;;;;;32.61;26.86;100452.03;1787154;78;21254;-64
2021/07/16 15:51:56;;;;;;;6.40;2.37;;;;;;;32.63;26.69;100449.06;1777369;79;21217;-63
2021/07/16 15:54:23;;;;;;;7.53;2.65;;;;;;;32.63;26.94;100451.84;1784792;78;21273;-64
2021/07/16 15:56:50;;;;;;;6.67;2.27;;;;;;;32.62;26.76;100448.20;1788446;78;20945;-63
2021/07/16 15:59:17;;;;;;;7.17;2.67;;;;;;;32.55;27.05;100453.71;1784901;79;21402;-64
2021/07/16 16:01:43;;;;;;;8.90;2.05;;;;;;;32.52;27.45;100449.97;1787520;78;21469;-64
2021/07/16 16:04:11;;;;;;;10.30;2.50;;;;;;;32.51;27.33;100455.20;1782676;79;20950;-66
2021/07/16 16:06:37;;;;;;;8.45;2.30;;;;;;;32.54;27.32;100455.33;1793468;78;21387;-66
2021/07/16 16:09:06;;;;;;;9.60;2.85;;;;;;;32.56;27.25;100451.27;1786075;78;21243;-66
2021/07/16 16:11:32;;;;;;;3.02;2.33;;;;;;;32.52;27.23;100449.97;1782763;78;21489;-66
2021/07/16 16:14:02;;;;;;;7.53;2.22;;;;;;;32.50;27.28;100441.55;1786403;79;21343;-67
2021/07/16 16:16:31;;;;;;;5.28;2.75;;;;;;;32.47;27.07;100445.58;1786895;78;20948;-66
2021/07/16 16:18:58;;;;;;;6.85;2.25;;;;;;;32.45;26.61;100442.16;1772597;79;20882;-66
2021/07/16 16:21:25;;;;;;;9.65;3.00;;;;;;;32.40;26.70;100443.31;1769472;80;20949;-66
2021/07/16 16:23:52;;;;;;;10.38;2.70;;;;;;;32.33;26.80;100448.83;1759277;80;21410;-66
2021/07/16 16:26:18;;;;;;;4.10;2.67;;;;;;;32.25;27.14;100448.42;1769848;79;21097;-68
2021/07/16 16:28:45;;;;;;;8.30;2.65;;;;;;;32.25;27.00;100444.27;1760729;79;21529;-68
2021/07/16 16:31:12;;;;;;;7.55;2.42;;;;;;;32.29;27.05;100444.18;1767698;78;20935;-68
2021/07/16 16:33:39;;;;;;;6.45;2.65;;;;;;;32.29;27.21;100447.50;1759914;79;20956;-67
2021/07/16 16:36:06;;;;;;;7.78;2.62;;;;;;;32.27;27.26;100444.91;1766605;79;21858;-67
2021/07/16 16:38:33;;;;;;;7.03;2.45;;;;;;;32.22;27.07;100446.07;1769321;78;21060;-67
2021/07/16 16:41:00;;;;;;;6.25;2.72;;;;;;;32.22;27.01;100447.45;1773523;78;21322;-66
2021/07/16 16:43:27;;;;;;;7.40;2.70;;;;;;;32.26;26.98;100449.27;1764821;78;20957;-66
2021/07/16 16:45:54;;;;;;;8.50;2.95;;;;;;;32.29;26.84;100440.56;1759224;79;20953;-67
2021/07/16 16:48:20;;;;;;;6.37;2.47;;;;;;;32.34;26.78;100446.89;1771805;79;20941;-66
2021/07/16 16:50:48;;;;;;;8.15;2.70;;;;;;;32.28;26.80;100443.02;1757948;79;21091;-66
2021/07/16 16:53:14;;;;;;;14.10;2.65;;;;;;;32.24;26.79;100438.40;1764206;79;21683;-66
2021/07/16 16:55:41;;;;;;;9.10;2.80;;;;;;;32.25;26.59;100442.01;1767309;79;20904;-66
2021/07/16 16:58:08;;;;;;;10.53;2.98;;;;;;;32.26;26.61;100436.27;1760363;79;21362;-67
2021/07/16 17:00:34;;;;;;;10.25;2.90;;;;;;;32.22;26.85;100432.20;1768778;79;21366;-66
2021/07/16 17:03:01;;;;;;;9.93;3.10;;;;;;;32.12;27.10;100423.38;1764714;79;21140;-67
2021/07/16 17:05:27;;;;;;;9.68;3.22;;;;;;;32.05;27.31;100425.27;1764638;78;21383;-66
2021/07/16 17:07:54;;;;;;;11.88;2.77;;;;;;;32.03;27.45;100424.63;1769210;78;20861;-67
2021/07/16 17:10:22;;;;;;;13.65;2.70;;;;;;;32.00;27.60;100423.11;1763106;79;20861;-64
2021/07/16 17:12:48;;;;;;;6.65;2.87;;;;;;;32.01;27.46;100425.69;1762092;79;20908;-65
2021/07/16 17:15:17;;;;;;;14.70;3.58;;;;;;;31.91;27.39;100418.25;1757338;80;21072;-65
2021/07/16 17:17:44;;;;;;;18.15;3.47;;;;;;;31.82;28.26;100417.55;1764805;79;20960;-65
2021/07/16 17:20:12;;;;;;;8.33;3.80;;;;;;;31.76;28.65;100423.03;1779133;79;20909;-65
2021/07/16 17:22:38;;;;;;;15.85;3.65;;;;;;;31.72;29.12;100423.96;1773377;79;21442;-64
2021/07/16 17:25:07;;;;;;;14.38;4.20;;;;;;;31.69;29.27;100430.75;1775549;79;21332;-64
2021/07/16 17:27:34;;;;;;;16.70;3.30;;;;;;;31.56;29.28;100425.12;1779677;79;21034;-65
2021/07/16 17:30:00;;;;;;;14.80;3.90;;;;;;;31.42;29.44;100424.16;1774552;78;20950;-65
2021/07/16 17:32:28;;;;;;;10.50;3.12;;;;;;;31.37;29.53;100419.72;1775160;79;20891;-65
2021/07/16 17:34:54;;;;;;;8.00;3.00;;;;;;;31.37;29.08;100430.29;1773136;79;20953;-65
2021/07/16 17:37:21;;;;;;;12.18;2.95;;;;;;;31.29;28.69;100420.75;1773922;79;20949;-65